Maracena, Spain
Current Conditions -  °F | °C
As of 3:30 AM on Wednesday 22 Oct 2014 (Local Time) from LEGR Reporting Station
Clear Clear  
Wind Chill: 54°   Ceiling: Unl
Heat Index: 54°   Visibility: 6mi
Dew Point: 48°   Wind: 0mph
Humidity: 82%   Direction: NA
Pressure: 30.36"   Gusts: NA
Location:  37.21°N, 3.63°W
Report Text: LEGR 220130Z AUTO 00000KT CAVOK 12/09 Q1028
Loading
Personal Weather Stations






























Interactive Weather Map
Tropical Storm Tracking
New forecast layout! Learn more

10-Day Weather Forecast

Advertisements
Track Severe Weather on mobile